Kneeland, California
Current Conditions -  °F | °C
As of 7:35 AM on Thursday 30 Oct 2014 (Local Time) from KFOT Reporting Station
Overcast Overcast  
Wind Chill: 55°   Ceiling: 200
Heat Index: 55°   Visibility: 0.25mi
Dew Point: 55°   Wind: 6mph
Humidity: 100%   Direction: 130°SE
Pressure: 29.93"   Gusts: NA
Location:  40.76°N, 124°W
Report Text: KFOT 301435Z AUTO 13005KT 1/4SM OVC002 13/13 A2993 RMK AO1
Loading
Personal Weather Stations






























Interactive Weather Map
Tropical Storm Tracking
New forecast layout! Learn more

10-Day Weather Forecast

Advertisements
Track Severe Weather on mobile